createdAt,value
2022-07-30T00:00:31.099Z,23.42
2022-07-30T00:02:59.056Z,23.49
2022-07-30T00:05:27.087Z,23.47
2022-07-30T00:07:55.099Z,23.39
2022-07-30T00:10:24.087Z,23.39
2022-07-30T00:12:52.577Z,23.42
2022-07-30T00:15:21.959Z,23.34
2022-07-30T00:17:49.963Z,23.34
2022-07-30T00:20:18.499Z,23.31
2022-07-30T00:22:46.963Z,23.30
2022-07-30T00:25:15.073Z,23.28
2022-07-30T00:27:44.338Z,23.29
2022-07-30T00:30:13.286Z,23.26
2022-07-30T00:32:42.708Z,23.25
2022-07-30T00:35:12.051Z,23.22
2022-07-30T00:37:40.141Z,23.25
2022-07-30T00:40:10.113Z,23.22
2022-07-30T00:42:39.838Z,23.18
2022-07-30T00:45:09.282Z,23.19
2022-07-30T00:47:37.634Z,23.14
2022-07-30T00:50:09.789Z,23.08
2022-07-30T00:52:39.393Z,23.04
2022-07-30T00:55:09.721Z,23.04
2022-07-30T00:57:39.315Z,23.02
2022-07-30T01:00:10.372Z,23.06
2022-07-30T01:02:38.493Z,23.05
2022-07-30T01:05:09.069Z,23.06
2022-07-30T01:07:37.387Z,23.06
2022-07-30T01:10:06.506Z,23.05
2022-07-30T01:12:34.964Z,22.99
2022-07-30T01:15:05.935Z,22.97
2022-07-30T01:17:34.733Z,22.96
2022-07-30T01:20:08.146Z,22.91
2022-07-30T01:22:49.231Z,22.89
2022-07-30T01:25:25.711Z,22.84
2022-07-30T01:27:59.476Z,22.80
2022-07-30T01:30:30.907Z,22.79
2022-07-30T01:33:01.189Z,22.82
2022-07-30T01:35:31.920Z,22.84
2022-07-30T01:38:02.931Z,22.84
2022-07-30T01:40:32.403Z,22.77
2022-07-30T01:43:04.247Z,22.75
2022-07-30T01:45:41.382Z,22.71
2022-07-30T01:48:12.319Z,22.68
2022-07-30T01:50:45.862Z,22.60
2022-07-30T01:53:16.765Z,22.65
2022-07-30T01:55:46.368Z,22.64
2022-07-30T01:58:17.960Z,22.66
2022-07-30T02:00:47.554Z,22.64
2022-07-30T02:03:15.927Z,22.67
2022-07-30T02:05:51.970Z,22.65
2022-07-30T02:08:26.031Z,22.62
2022-07-30T02:11:03.011Z,22.58
2022-07-30T02:13:35.544Z,22.45
2022-07-30T02:16:12.097Z,22.43
2022-07-30T02:18:48.168Z,22.32
2022-07-30T02:21:18.888Z,22.29
2022-07-30T02:23:49.655Z,22.20
2022-07-30T02:26:22.305Z,22.17
2022-07-30T02:28:55.615Z,22.10
2022-07-30T02:31:28.108Z,22.09
2022-07-30T02:33:59.996Z,21.99
2022-07-30T02:36:29.552Z,21.81
2022-07-30T02:38:58.065Z,21.84
2022-07-30T02:41:29.507Z,21.80
2022-07-30T02:44:00.419Z,21.83
2022-07-30T02:46:29.779Z,21.81
2022-07-30T02:48:59.891Z,21.75
2022-07-30T02:51:30.053Z,21.70
2022-07-30T02:53:59.805Z,21.63
2022-07-30T02:56:30.376Z,21.73
2022-07-30T02:59:02.921Z,21.69
2022-07-30T03:01:34.182Z,21.67
2022-07-30T03:04:03.928Z,21.62
2022-07-30T03:06:33.936Z,21.51
2022-07-30T03:09:04.443Z,21.40
2022-07-30T03:11:34.211Z,21.42
2022-07-30T03:14:03.947Z,21.43
2022-07-30T03:16:35.529Z,21.42
2022-07-30T03:19:05.320Z,21.45
2022-07-30T03:21:36.620Z,21.50
2022-07-30T03:24:08.538Z,21.62
2022-07-30T03:26:37.779Z,21.63
2022-07-30T03:29:08.809Z,21.64
2022-07-30T03:31:39.959Z,21.70
2022-07-30T03:34:09.975Z,21.68
2022-07-30T03:36:41.725Z,21.72
2022-07-30T03:39:10.470Z,21.55
2022-07-30T03:41:40.263Z,21.58
2022-07-30T03:44:11.677Z,21.49
2022-07-30T03:46:41.699Z,21.52
2022-07-30T03:49:10.944Z,21.50
2022-07-30T03:51:42.591Z,21.50
2022-07-30T03:54:13.782Z,21.53
2022-07-30T03:56:42.387Z,21.52
2022-07-30T03:59:12.185Z,21.61
2022-07-30T04:01:40.368Z,21.65
2022-07-30T04:04:09.172Z,21.51
2022-07-30T04:06:39.778Z,21.55
2022-07-30T04:09:08.737Z,21.55
2022-07-30T04:11:40.721Z,21.55
2022-07-30T04:14:11.261Z,21.51
2022-07-30T04:16:45.717Z,21.53
2022-07-30T04:19:23.040Z,21.48
2022-07-30T04:21:53.830Z,21.54
2022-07-30T04:24:23.442Z,21.51
2022-07-30T04:26:52.880Z,21.58
2022-07-30T04:29:24.889Z,21.63
2022-07-30T04:31:54.019Z,21.61
2022-07-30T04:34:22.368Z,21.70
2022-07-30T04:36:50.484Z,21.73
2022-07-30T04:39:18.460Z,21.73
2022-07-30T04:41:48.904Z,21.77
2022-07-30T04:44:17.571Z,21.74
2022-07-30T04:46:47.143Z,21.80
2022-07-30T04:49:17.612Z,21.81
2022-07-30T04:51:46.849Z,21.88
2022-07-30T04:54:16.977Z,21.85
2022-07-30T04:56:50.534Z,21.89
2022-07-30T04:59:24.738Z,21.91
2022-07-30T05:01:57.630Z,21.87
2022-07-30T05:04:28.228Z,21.95
2022-07-30T05:06:58.605Z,22.02
2022-07-30T05:09:27.667Z,22.02
2022-07-30T05:11:56.966Z,22.04
2022-07-30T05:14:25.661Z,21.97
2022-07-30T05:16:56.088Z,22.02
2022-07-30T05:19:25.246Z,22.01
2022-07-30T05:21:53.970Z,22.00
2022-07-30T05:24:22.117Z,22.17
2022-07-30T05:26:50.290Z,22.25
2022-07-30T05:29:20.056Z,22.29
2022-07-30T05:31:48.982Z,22.36
2022-07-30T05:34:18.743Z,22.50
2022-07-30T05:36:46.846Z,22.50
2022-07-30T05:39:16.361Z,22.52
2022-07-30T05:41:44.634Z,22.63
2022-07-30T05:44:12.881Z,22.73
2022-07-30T05:46:41.127Z,22.81
2022-07-30T05:49:09.475Z,22.99
2022-07-30T05:51:40.369Z,23.08
2022-07-30T05:54:09.394Z,23.19
2022-07-30T05:56:37.800Z,23.33
2022-07-30T05:59:07.042Z,23.42
2022-07-30T06:01:35.135Z,23.55
2022-07-30T06:04:03.703Z,23.67
2022-07-30T06:06:31.785Z,23.76
2022-07-30T06:09:01.320Z,23.84
2022-07-30T06:11:29.563Z,23.87
2022-07-30T06:13:57.571Z,23.96
2022-07-30T06:16:25.695Z,23.91
2022-07-30T06:18:53.808Z,23.93
2022-07-30T06:21:21.993Z,24.05
2022-07-30T06:23:50.023Z,24.06
2022-07-30T06:26:19.500Z,23.99
2022-07-30T06:28:47.584Z,24.06
2022-07-30T06:31:16.118Z,24.18
2022-07-30T06:33:44.389Z,24.25
2022-07-30T06:36:14.254Z,24.38
2022-07-30T06:38:42.792Z,24.58
2022-07-30T06:41:11.196Z,24.50
2022-07-30T06:43:40.873Z,24.65
2022-07-30T06:46:09.100Z,24.73
2022-07-30T06:48:37.831Z,24.76
2022-07-30T06:51:06.087Z,24.87
2022-07-30T06:53:35.735Z,24.91
2022-07-30T06:56:13.047Z,25.00
2022-07-30T06:58:42.719Z,24.96
2022-07-30T07:01:11.597Z,25.19
2022-07-30T07:03:40.793Z,25.31
2022-07-30T07:06:10.035Z,25.37
2022-07-30T07:08:38.645Z,25.46
2022-07-30T07:11:06.660Z,25.48
2022-07-30T07:13:34.681Z,25.61
2022-07-30T07:16:04.445Z,25.65
2022-07-30T07:18:32.503Z,25.73
2022-07-30T07:21:00.540Z,25.74
2022-07-30T07:23:39.872Z,25.82
2022-07-30T07:26:11.576Z,25.92
2022-07-30T07:28:41.116Z,25.98
2022-07-30T07:31:11.633Z,26.03
2022-07-30T07:34:00.806Z,26.17
2022-07-30T07:36:28.926Z,26.32
2022-07-30T07:38:57.034Z,26.40
2022-07-30T07:41:26.266Z,26.52
2022-07-30T07:43:54.704Z,26.44
2022-07-30T07:46:33.433Z,26.58
2022-07-30T07:49:02.786Z,26.74
2022-07-30T07:51:47.166Z,26.85
2022-07-30T07:54:23.613Z,26.82
2022-07-30T07:56:53.338Z,26.87
2022-07-30T07:59:21.884Z,27.05
2022-07-30T08:01:52.528Z,27.05
2022-07-30T08:04:20.826Z,27.09
2022-07-30T08:06:48.985Z,27.22
2022-07-30T08:09:17.094Z,27.41
2022-07-30T08:11:45.294Z,27.30
2022-07-30T08:14:13.317Z,27.46
2022-07-30T08:16:41.354Z,27.67
2022-07-30T08:19:11.246Z,27.69
2022-07-30T08:21:39.466Z,27.70
2022-07-30T08:24:08.884Z,27.97
2022-07-30T08:26:37.334Z,28.04
2022-07-30T08:29:05.534Z,28.05
2022-07-30T08:31:33.725Z,28.20
2022-07-30T08:34:01.835Z,28.24
2022-07-30T08:36:31.294Z,28.37
2022-07-30T08:38:59.317Z,28.41
2022-07-30T08:41:28.665Z,28.44
2022-07-30T08:43:58.319Z,28.58
2022-07-30T08:46:29.114Z,28.62
2022-07-30T08:48:57.578Z,28.70
2022-07-30T08:51:26.160Z,28.82
2022-07-30T08:53:57.941Z,28.62
2022-07-30T08:56:26.385Z,28.83
2022-07-30T08:58:54.641Z,28.88
2022-07-30T09:01:23.842Z,29.02
2022-07-30T09:03:51.964Z,29.21
2022-07-30T09:06:20.188Z,29.17
2022-07-30T09:08:48.411Z,29.22
2022-07-30T09:11:18.146Z,29.42
2022-07-30T09:13:46.313Z,29.49
2022-07-30T09:16:22.371Z,29.54
2022-07-30T09:18:51.003Z,29.58
2022-07-30T09:21:23.326Z,29.72
2022-07-30T09:23:59.524Z,29.81
2022-07-30T09:26:29.876Z,29.94
2022-07-30T09:29:16.914Z,30.04
2022-07-30T09:31:55.646Z,30.16
2022-07-30T09:34:28.469Z,30.25
2022-07-30T09:36:57.779Z,30.23
2022-07-30T09:39:33.988Z,30.36
2022-07-30T09:42:05.507Z,30.50
2022-07-30T09:44:33.682Z,30.65
2022-07-30T09:47:03.072Z,30.55
2022-07-30T09:49:31.616Z,30.43
2022-07-30T09:51:59.990Z,30.64
2022-07-30T09:54:51.163Z,30.66
2022-07-30T09:57:57.753Z,30.87
2022-07-30T10:00:28.560Z,31.07
2022-07-30T10:02:56.935Z,31.11
2022-07-30T10:05:25.556Z,31.26
2022-07-30T10:07:57.782Z,31.33
2022-07-30T10:10:28.010Z,31.37
2022-07-30T10:13:00.956Z,31.26
2022-07-30T10:15:32.799Z,31.23
2022-07-30T10:18:06.363Z,31.33
2022-07-30T10:20:35.280Z,31.53
2022-07-30T10:23:09.095Z,31.59
2022-07-30T10:25:54.710Z,31.66
2022-07-30T10:28:25.825Z,31.82
2022-07-30T10:30:56.667Z,31.78
2022-07-30T10:33:34.644Z,31.87
2022-07-30T10:36:05.773Z,32.03
2022-07-30T10:38:41.901Z,32.12
2022-07-30T10:41:44.179Z,32.17
2022-07-30T10:44:39.094Z,32.45
2022-07-30T10:47:11.406Z,32.75
2022-07-30T10:49:41.059Z,32.76
2022-07-30T10:52:12.123Z,32.94
2022-07-30T10:54:42.849Z,33.22
2022-07-30T10:57:14.958Z,33.49
2022-07-30T11:00:17.682Z,34.01
2022-07-30T11:03:17.257Z,34.36
2022-07-30T11:05:48.625Z,34.96
2022-07-30T11:08:36.757Z,34.94
2022-07-30T11:11:19.511Z,35.40
2022-07-30T11:13:57.624Z,35.88
2022-07-30T11:17:00.452Z,36.05
2022-07-30T11:19:55.946Z,36.49
2022-07-30T11:22:26.011Z,36.24
2022-07-30T11:24:54.759Z,37.14
2022-07-30T11:27:42.214Z,37.48
2022-07-30T11:30:34.953Z,37.50
2022-07-30T11:33:32.057Z,36.97
2022-07-30T11:36:12.656Z,36.93
2022-07-30T11:39:06.795Z,37.06
2022-07-30T11:41:35.469Z,37.17
2022-07-30T11:44:27.653Z,37.51
2022-07-30T11:46:56.693Z,37.96
2022-07-30T11:49:27.586Z,38.12
2022-07-30T11:51:56.017Z,38.01
2022-07-30T11:54:24.165Z,37.54
2022-07-30T11:56:53.640Z,36.90
2022-07-30T11:59:22.012Z,36.69
2022-07-30T12:01:56.919Z,36.62
2022-07-30T12:04:26.968Z,36.24
2022-07-30T12:06:55.088Z,34.92
2022-07-30T12:09:27.498Z,34.35
2022-07-30T12:11:56.666Z,33.82
2022-07-30T12:14:24.741Z,33.66
2022-07-30T12:16:53.976Z,34.20
2022-07-30T12:19:22.654Z,34.32
2022-07-30T12:21:53.566Z,34.53
2022-07-30T12:24:27.469Z,34.73
2022-07-30T12:27:06.465Z,35.34
2022-07-30T12:29:35.827Z,35.56
2022-07-30T12:32:06.209Z,35.49
2022-07-30T12:34:34.280Z,35.88
2022-07-30T12:37:10.688Z,36.73
2022-07-30T12:39:38.737Z,36.00
2022-07-30T12:42:09.175Z,36.26
2022-07-30T12:44:39.320Z,36.29
2022-07-30T12:47:19.155Z,36.41
2022-07-30T12:49:49.606Z,35.96
2022-07-30T12:52:28.787Z,36.54
2022-07-30T12:55:01.987Z,36.67
2022-07-30T12:57:30.238Z,36.07
2022-07-30T13:00:08.675Z,36.75
2022-07-30T13:02:37.470Z,37.12
2022-07-30T13:05:10.589Z,37.00
2022-07-30T13:07:57.275Z,37.39
2022-07-30T13:10:30.487Z,37.78
2022-07-30T13:12:59.413Z,38.46
2022-07-30T13:15:27.528Z,36.97
2022-07-30T13:17:55.509Z,37.34
2022-07-30T13:20:24.112Z,37.87
2022-07-30T13:22:52.090Z,38.46
2022-07-30T13:25:21.761Z,38.55
2022-07-30T13:27:50.089Z,38.51
2022-07-30T13:30:18.131Z,38.62
2022-07-30T13:32:46.298Z,38.31
2022-07-30T13:35:15.229Z,38.23
2022-07-30T13:37:43.374Z,36.94
2022-07-30T13:40:11.969Z,35.06
2022-07-30T13:42:41.592Z,34.68
2022-07-30T13:45:10.768Z,34.56
2022-07-30T13:47:38.843Z,34.15
2022-07-30T13:50:07.560Z,34.37
2022-07-30T13:52:35.546Z,34.48
2022-07-30T13:55:03.661Z,34.52
2022-07-30T13:57:34.015Z,34.59
2022-07-30T14:00:03.577Z,34.19
2022-07-30T14:02:32.612Z,34.60
2022-07-30T14:05:06.896Z,34.61
2022-07-30T14:07:35.448Z,34.65
2022-07-30T14:10:04.184Z,34.97
2022-07-30T14:12:32.293Z,35.54
2022-07-30T14:15:00.312Z,34.87
2022-07-30T14:17:29.826Z,34.51
2022-07-30T14:20:00.411Z,34.77
2022-07-30T14:22:28.579Z,34.67
2022-07-30T14:24:56.739Z,34.55
2022-07-30T14:27:24.792Z,34.15
2022-07-30T14:29:52.873Z,33.89
2022-07-30T14:32:20.858Z,33.78
2022-07-30T14:34:53.086Z,33.76
2022-07-30T14:37:21.371Z,33.72
2022-07-30T14:39:49.408Z,33.52
2022-07-30T14:42:18.119Z,33.30
2022-07-30T14:44:46.329Z,32.74
2022-07-30T14:47:14.772Z,32.70
2022-07-30T14:49:42.900Z,32.41
2022-07-30T14:52:12.858Z,32.11
2022-07-30T14:54:40.920Z,31.87
2022-07-30T14:57:11.131Z,31.45
2022-07-30T14:59:39.256Z,31.32
2022-07-30T15:02:10.497Z,31.25
2022-07-30T15:04:39.033Z,31.18
2022-07-30T15:07:07.132Z,31.45
2022-07-30T15:09:36.870Z,31.63
2022-07-30T15:12:23.785Z,31.87
2022-07-30T15:14:53.135Z,31.19
2022-07-30T15:17:21.281Z,30.23
2022-07-30T15:19:51.061Z,30.46
2022-07-30T15:22:22.522Z,30.53
2022-07-30T15:24:51.973Z,30.74
2022-07-30T15:27:22.403Z,30.59
2022-07-30T15:29:55.809Z,30.50
2022-07-30T15:32:23.821Z,30.60
2022-07-30T15:34:51.878Z,30.53
2022-07-30T15:37:23.271Z,30.71
2022-07-30T15:39:52.848Z,31.07
2022-07-30T15:42:20.859Z,31.46
2022-07-30T15:44:49.495Z,32.03
2022-07-30T15:47:29.588Z,32.40
2022-07-30T15:49:57.890Z,32.57
2022-07-30T15:52:26.102Z,32.77
2022-07-30T15:54:56.021Z,32.78
2022-07-30T15:57:25.515Z,33.33
2022-07-30T15:59:53.521Z,33.49
2022-07-30T16:02:21.711Z,33.57
2022-07-30T16:04:49.828Z,33.76
2022-07-30T16:07:21.204Z,33.67
2022-07-30T16:09:50.048Z,33.18
2022-07-30T16:12:19.673Z,31.89
2022-07-30T16:14:47.834Z,31.62
2022-07-30T16:17:16.593Z,30.95
2022-07-30T16:19:45.353Z,30.26
2022-07-30T16:22:14.947Z,29.63
2022-07-30T16:24:50.227Z,29.45
2022-07-30T16:27:20.258Z,29.39
2022-07-30T16:29:49.723Z,29.43
2022-07-30T16:32:17.744Z,29.55
2022-07-30T16:34:46.217Z,29.68
2022-07-30T16:37:15.309Z,29.81
2022-07-30T16:39:43.310Z,29.93
2022-07-30T16:42:11.901Z,29.57
2022-07-30T16:44:41.338Z,29.76
2022-07-30T16:47:13.595Z,29.47
2022-07-30T16:49:42.067Z,29.54
2022-07-30T16:52:10.237Z,29.50
2022-07-30T16:54:38.372Z,29.52
2022-07-30T16:57:10.533Z,29.62
2022-07-30T16:59:43.561Z,29.65
2022-07-30T17:02:13.525Z,29.67
2022-07-30T17:04:41.654Z,29.60
2022-07-30T17:07:15.311Z,29.52
2022-07-30T17:09:43.829Z,29.56
2022-07-30T17:12:23.968Z,29.58
2022-07-30T17:14:54.986Z,29.46
2022-07-30T17:17:25.002Z,29.33
2022-07-30T17:19:54.170Z,28.87
2022-07-30T17:22:23.346Z,28.47
2022-07-30T17:24:52.271Z,28.19
2022-07-30T17:27:22.043Z,27.83
2022-07-30T17:29:50.883Z,27.39
2022-07-30T17:32:20.198Z,26.29
2022-07-30T17:34:50.432Z,25.62
2022-07-30T17:37:18.512Z,25.55
2022-07-30T17:40:19.189Z,25.40
2022-07-30T17:42:40.175Z,25.04
2022-07-30T17:45:10.070Z,24.97
2022-07-30T17:47:38.194Z,24.81
2022-07-30T17:50:09.144Z,24.59
2022-07-30T17:52:39.802Z,24.53
2022-07-30T17:55:11.335Z,24.69
2022-07-30T17:57:40.478Z,24.73
2022-07-30T18:00:10.740Z,24.73
2022-07-30T18:02:39.086Z,24.70
2022-07-30T18:05:11.160Z,24.79
2022-07-30T18:07:39.223Z,24.67
2022-07-30T18:10:08.400Z,24.83
2022-07-30T18:12:36.551Z,24.82
2022-07-30T18:15:08.405Z,24.41
2022-07-30T18:17:36.486Z,23.39
2022-07-30T18:20:05.526Z,22.74
2022-07-30T18:22:35.085Z,22.73
2022-07-30T18:25:07.526Z,22.53
2022-07-30T18:27:35.992Z,22.05
2022-07-30T18:30:05.012Z,21.12
2022-07-30T18:47:45.754Z,18.62
2022-07-30T18:50:15.835Z,18.50
2022-07-30T18:52:44.047Z,18.57
2022-07-30T18:55:12.776Z,18.56
2022-07-30T18:57:41.493Z,18.47
2022-07-30T19:00:34.573Z,18.48
2022-07-30T19:03:02.194Z,18.49
2022-07-30T19:05:30.259Z,18.51
2022-07-30T19:07:59.055Z,18.44
2022-07-30T19:10:27.579Z,18.50
2022-07-30T19:12:55.991Z,18.46
2022-07-30T19:15:24.154Z,18.45
2022-07-30T19:17:52.326Z,18.45
2022-07-30T19:20:23.329Z,18.44
2022-07-30T19:22:53.267Z,18.50
2022-07-30T19:25:21.287Z,18.50
2022-07-30T19:27:49.362Z,18.53
2022-07-30T19:30:17.416Z,18.58
2022-07-30T19:32:45.853Z,18.40
2022-07-30T19:35:14.639Z,18.46
2022-07-30T19:37:44.258Z,18.62
2022-07-30T19:40:13.459Z,18.65
2022-07-30T19:42:41.919Z,18.63
2022-07-30T19:45:13.286Z,18.63
2022-07-30T19:47:42.291Z,18.61
2022-07-30T19:50:29.433Z,18.51
2022-07-30T19:52:59.331Z,18.62
2022-07-30T19:55:35.855Z,18.71
2022-07-30T19:58:05.270Z,19.10
2022-07-30T20:00:48.483Z,18.93
2022-07-30T20:03:25.286Z,18.94
2022-07-30T20:05:57.255Z,19.09
2022-07-30T20:08:28.957Z,19.20
2022-07-30T20:10:59.328Z,19.42
2022-07-30T20:13:44.454Z,19.33
2022-07-30T20:16:14.381Z,19.53
2022-07-30T20:18:44.490Z,19.72
2022-07-30T20:21:16.071Z,19.66
2022-07-30T20:23:46.415Z,19.53
2022-07-30T20:26:15.939Z,19.43
2022-07-30T20:28:45.761Z,19.34
2022-07-30T20:31:14.008Z,19.25
2022-07-30T20:33:43.409Z,19.18
2022-07-30T20:36:18.289Z,19.07
2022-07-30T20:38:49.318Z,18.88
2022-07-30T20:41:17.502Z,18.89
2022-07-30T20:43:52.380Z,18.88
2022-07-30T20:46:23.665Z,18.75
2022-07-30T20:48:52.810Z,18.90
2022-07-30T20:51:21.015Z,18.87
2022-07-30T20:53:50.465Z,18.80
2022-07-30T20:56:19.513Z,18.72
2022-07-30T20:58:48.410Z,18.69
2022-07-30T21:01:17.923Z,18.75
2022-07-30T21:03:47.612Z,18.70
2022-07-30T21:06:16.418Z,18.75
2022-07-30T21:08:44.456Z,18.69
2022-07-30T21:11:14.531Z,18.71
2022-07-30T21:13:42.700Z,18.78
2022-07-30T21:16:15.791Z,18.51
2022-07-30T21:18:50.047Z,18.63
2022-07-30T21:21:38.288Z,18.91
2022-07-30T21:24:11.286Z,18.99
2022-07-30T21:26:41.877Z,18.92
2022-07-30T21:29:10.404Z,18.97
2022-07-30T21:32:00.605Z,19.05
2022-07-30T21:34:30.896Z,18.96
2022-07-30T21:37:03.509Z,19.04
2022-07-30T21:39:31.583Z,19.00
2022-07-30T21:42:10.032Z,19.03
2022-07-30T21:44:38.511Z,18.99
2022-07-30T21:47:08.376Z,18.98
2022-07-30T21:49:38.959Z,19.02
2022-07-30T21:52:08.481Z,18.89
2022-07-30T21:54:45.231Z,19.08
2022-07-30T21:57:26.193Z,19.15
2022-07-30T21:59:55.087Z,18.78
2022-07-30T22:02:23.792Z,18.87
2022-07-30T22:04:51.927Z,18.85
2022-07-30T22:07:21.796Z,18.74
2022-07-30T22:09:50.337Z,18.73
2022-07-30T22:12:19.989Z,18.77
2022-07-30T22:14:49.575Z,18.85
2022-07-30T22:17:23.564Z,18.87
2022-07-30T22:20:08.402Z,18.95
2022-07-30T22:22:37.701Z,18.90
2022-07-30T22:25:09.840Z,19.03
2022-07-30T22:27:56.398Z,19.00
2022-07-30T22:30:27.656Z,19.05
2022-07-30T22:32:56.147Z,18.97
2022-07-30T22:35:32.201Z,18.97
2022-07-30T22:38:02.221Z,18.95
2022-07-30T22:40:30.830Z,18.87
2022-07-30T22:43:00.245Z,18.99
2022-07-30T22:45:46.846Z,19.01
2022-07-30T22:48:19.278Z,19.02
2022-07-30T22:50:52.369Z,19.08
2022-07-30T22:54:02.676Z,19.05
2022-07-30T22:56:14.245Z,19.08
2022-07-30T22:58:48.641Z,19.13
2022-07-30T23:01:16.898Z,18.94
2022-07-30T23:03:45.038Z,19.11
2022-07-30T23:06:14.702Z,19.16
2022-07-30T23:08:44.182Z,19.17
2022-07-30T23:11:12.213Z,19.19
2022-07-30T23:13:40.543Z,19.19
2022-07-30T23:16:10.072Z,19.18
2022-07-30T23:18:38.240Z,19.19
2022-07-30T23:21:06.332Z,19.19
2022-07-30T23:23:35.735Z,19.13
2022-07-30T23:26:03.993Z,19.11
2022-07-30T23:28:32.243Z,19.15
2022-07-30T23:31:00.349Z,19.08
2022-07-30T23:33:29.811Z,19.10
2022-07-30T23:36:00.178Z,19.13
2022-07-30T23:38:28.858Z,19.23
2022-07-30T23:41:01.198Z,19.14
2022-07-30T23:43:29.184Z,19.20
2022-07-30T23:45:57.301Z,19.18
2022-07-30T23:48:25.326Z,19.23
2022-07-30T23:50:54.843Z,19.22
2022-07-30T23:53:22.886Z,19.23
2022-07-30T23:55:51.598Z,19.21
2022-07-30T23:58:19.633Z,19.20
